Time;durP1;ratioP1;P1;durP2;ratioP2;P2;SDS_P1;SDS_P2;PMS_P1;PMS_P2;Temp;Humidity;BMP_temperature;BMP_pressure;BME280_temperature;BME280_humidity;BME280_pressure;Samples;Min_cycle;Max_cycle;Signal;HPM_P1;HPM_P2
2023/06/17 00:01:02;;;;;;;9.65;3.60;;;;;;;;;;4949934;28;20031;-69
2023/06/17 00:03:29;;;;;;;9.73;3.80;;;;;;;;;;4954653;28;20058;-68
2023/06/17 00:05:55;;;;;;;10.07;4.68;;;;;;;;;;4937133;28;20599;-68
2023/06/17 00:08:21;;;;;;;9.82;4.13;;;;;;;;;;4950543;28;20058;-67
2023/06/17 00:10:48;;;;;;;9.48;4.22;;;;;;;;;;4953733;28;20037;-67
2023/06/17 00:13:20;;;;;;;8.57;3.95;;;;;;;;;;4934830;28;20108;-67
2023/06/17 00:16:00;;;;;;;9.35;4.70;;;;;;;;;;4953206;28;20026;-66
2023/06/17 00:18:28;;;;;;;17.77;3.92;;;;;;;;;;4952273;28;21027;-67
2023/06/17 00:20:57;;;;;;;8.13;3.90;;;;;;;;;;4952271;28;20065;-67
2023/06/17 00:23:23;;;;;;;9.13;4.35;;;;;;;;;;4950746;28;20030;-69
2023/06/17 00:25:50;;;;;;;9.00;3.90;;;;;;;;;;4952369;28;20437;-67
2023/06/17 00:28:16;;;;;;;10.45;4.75;;;;;;;;;;4949112;28;20089;-67
2023/06/17 00:30:45;;;;;;;10.07;4.53;;;;;;;;;;4950973;28;20294;-67
2023/06/17 00:33:11;;;;;;;8.95;4.60;;;;;;;;;;4948982;28;20139;-69
2023/06/17 00:35:37;;;;;;;9.57;4.82;;;;;;;;;;4939204;28;20035;-68
2023/06/17 00:38:03;;;;;;;11.32;5.88;;;;;;;;;;4946997;28;20546;-67
2023/06/17 00:40:29;;;;;;;9.90;4.70;;;;;;;;;;4941193;28;20771;-68
2023/06/17 00:42:55;;;;;;;10.45;5.00;;;;;;;;;;4954556;28;20289;-67
2023/06/17 00:45:22;;;;;;;8.82;4.45;;;;;;;;;;4950945;28;20451;-67
2023/06/17 00:47:48;;;;;;;7.22;3.60;;;;;;;;;;4955390;28;20038;-67
2023/06/17 00:50:15;;;;;;;7.53;3.40;;;;;;;;;;4951686;28;20044;-67
2023/06/17 00:52:42;;;;;;;8.10;3.85;;;;;;;;;;4937419;28;20410;-67
2023/06/17 00:55:10;;;;;;;9.05;3.90;;;;;;;;;;4951854;28;20389;-67
2023/06/17 00:57:37;;;;;;;8.75;4.00;;;;;;;;;;4956982;28;20037;-67
2023/06/17 01:00:06;;;;;;;8.48;3.60;;;;;;;;;;4948493;28;20050;-67
2023/06/17 01:02:32;;;;;;;7.97;3.65;;;;;;;;;;4941321;28;20073;-69
2023/06/17 01:05:02;;;;;;;9.60;3.70;;;;;;;;;;4956899;28;20413;-67
2023/06/17 01:07:29;;;;;;;8.75;3.90;;;;;;;;;;4955718;28;20419;-67
2023/06/17 01:09:57;;;;;;;8.10;3.67;;;;;;;;;;4943404;28;20030;-67
2023/06/17 01:12:26;;;;;;;6.85;3.20;;;;;;;;;;4953134;28;20041;-69
2023/06/17 01:14:54;;;;;;;7.78;3.97;;;;;;;;;;4956451;28;20034;-67
2023/06/17 01:17:20;;;;;;;8.60;3.17;;;;;;;;;;4950126;28;20105;-67
2023/06/17 01:19:48;;;;;;;9.60;3.65;;;;;;;;;;4955456;28;20444;-67
2023/06/17 01:22:16;;;;;;;8.27;3.60;;;;;;;;;;4951487;28;20030;-67
2023/06/17 01:24:43;;;;;;;7.30;3.50;;;;;;;;;;4938851;28;20038;-67
2023/06/17 01:27:09;;;;;;;7.82;3.58;;;;;;;;;;4950325;28;20042;-67
2023/06/17 01:29:38;;;;;;;7.28;3.38;;;;;;;;;;4955938;28;20555;-69
2023/06/17 01:32:06;;;;;;;8.10;3.42;;;;;;;;;;4952899;28;20034;-68
2023/06/17 01:34:41;;;;;;;6.43;2.85;;;;;;;;;;4952056;28;20145;-68
2023/06/17 01:37:14;;;;;;;6.47;2.90;;;;;;;;;;4949557;28;20065;-67
2023/06/17 01:39:41;;;;;;;7.20;2.90;;;;;;;;;;4957418;28;20506;-68
2023/06/17 01:42:11;;;;;;;8.15;3.38;;;;;;;;;;4953553;28;20034;-68
2023/06/17 01:44:39;;;;;;;6.97;3.10;;;;;;;;;;4956513;28;20511;-68
2023/06/17 01:47:09;;;;;;;7.45;3.10;;;;;;;;;;4954119;28;20084;-68
2023/06/17 01:49:35;;;;;;;8.07;3.80;;;;;;;;;;4934038;28;20026;-68
2023/06/17 01:52:02;;;;;;;7.22;3.08;;;;;;;;;;4937389;28;20784;-67
2023/06/17 01:54:28;;;;;;;7.97;3.33;;;;;;;;;;4959393;28;20117;-67
2023/06/17 01:56:54;;;;;;;6.60;3.10;;;;;;;;;;4964904;28;20688;-69
2023/06/17 01:59:20;;;;;;;7.15;3.25;;;;;;;;;;4958719;28;20373;-67
2023/06/17 02:01:46;;;;;;;8.75;3.50;;;;;;;;;;4965159;28;20113;-68
2023/06/17 02:04:12;;;;;;;7.90;3.72;;;;;;;;;;4944260;28;20071;-68
2023/06/17 02:06:39;;;;;;;8.63;3.40;;;;;;;;;;4963246;28;20034;-68
2023/06/17 02:09:06;;;;;;;6.82;3.13;;;;;;;;;;4961316;28;20041;-68
2023/06/17 02:11:32;;;;;;;9.52;3.65;;;;;;;;;;4964599;28;20384;-68
2023/06/17 02:13:59;;;;;;;8.02;3.25;;;;;;;;;;4962732;28;20023;-68
2023/06/17 02:16:25;;;;;;;7.30;3.53;;;;;;;;;;4963242;28;20462;-67
2023/06/17 02:18:53;;;;;;;7.60;3.40;;;;;;;;;;4961947;28;20058;-68
2023/06/17 02:21:19;;;;;;;7.63;3.35;;;;;;;;;;4944305;28;20468;-67
2023/06/17 02:23:48;;;;;;;8.95;3.50;;;;;;;;;;4962026;28;20649;-67
2023/06/17 02:26:18;;;;;;;7.63;3.42;;;;;;;;;;4923781;28;20042;-67
2023/06/17 02:28:44;;;;;;;7.15;3.20;;;;;;;;;;4914319;28;20019;-67
2023/06/17 02:31:12;;;;;;;7.30;3.20;;;;;;;;;;4912944;28;20038;-67
2023/06/17 02:33:38;;;;;;;8.50;3.28;;;;;;;;;;4914980;28;20029;-67
2023/06/17 02:36:05;;;;;;;9.68;3.35;;;;;;;;;;4893960;28;20088;-67
2023/06/17 02:38:32;;;;;;;7.63;3.65;;;;;;;;;;4895303;28;21452;-67
2023/06/17 02:40:59;;;;;;;6.70;3.10;;;;;;;;;;4899601;28;20555;-67
2023/06/17 02:43:25;;;;;;;7.65;3.60;;;;;;;;;;4912292;28;20695;-67
2023/06/17 02:45:52;;;;;;;7.70;3.00;;;;;;;;;;4913694;28;20050;-67
2023/06/17 02:48:18;;;;;;;8.57;3.58;;;;;;;;;;4911750;28;20259;-67
2023/06/17 02:50:45;;;;;;;6.47;3.17;;;;;;;;;;4894894;28;20042;-67
2023/06/17 02:53:11;;;;;;;9.60;3.25;;;;;;;;;;4911740;28;20638;-67
2023/06/17 02:55:37;;;;;;;8.85;3.40;;;;;;;;;;4899143;28;20105;-67
2023/06/17 02:58:03;;;;;;;7.68;3.33;;;;;;;;;;4907969;28;20031;-67
2023/06/17 03:00:30;;;;;;;8.65;3.28;;;;;;;;;;4911668;28;20473;-66
2023/06/17 03:02:56;;;;;;;7.65;3.10;;;;;;;;;;4931404;28;20142;-67
2023/06/17 03:05:23;;;;;;;8.18;3.78;;;;;;;;;;4957673;28;20054;-67
2023/06/17 03:07:49;;;;;;;7.18;3.30;;;;;;;;;;4960079;28;20094;-68
2023/06/17 03:10:17;;;;;;;7.32;3.33;;;;;;;;;;4945869;28;20046;-69
2023/06/17 03:12:44;;;;;;;6.40;3.10;;;;;;;;;;4960227;28;20019;-68
2023/06/17 03:15:10;;;;;;;7.75;3.30;;;;;;;;;;4961323;28;20026;-68
2023/06/17 03:17:37;;;;;;;7.65;3.35;;;;;;;;;;4960494;28;20031;-68
2023/06/17 03:20:08;;;;;;;7.40;3.47;;;;;;;;;;4959052;28;20042;-68
2023/06/17 03:22:34;;;;;;;9.25;3.53;;;;;;;;;;4962734;28;20026;-69
2023/06/17 03:25:00;;;;;;;7.05;3.33;;;;;;;;;;4959122;28;20061;-68
2023/06/17 03:27:27;;;;;;;8.05;3.28;;;;;;;;;;4962867;28;20035;-68
2023/06/17 03:29:53;;;;;;;8.85;3.58;;;;;;;;;;4960226;28;20130;-68
2023/06/17 03:32:19;;;;;;;7.47;3.42;;;;;;;;;;4958571;28;20074;-68
2023/06/17 03:34:46;;;;;;;6.75;3.03;;;;;;;;;;4960810;28;20089;-68
2023/06/17 03:37:12;;;;;;;8.32;3.28;;;;;;;;;;4942815;28;20022;-67
2023/06/17 03:39:38;;;;;;;8.52;3.33;;;;;;;;;;4948048;28;20038;-69
2023/06/17 03:42:04;;;;;;;7.32;3.13;;;;;;;;;;4960502;28;20077;-67
2023/06/17 03:44:31;;;;;;;9.57;3.30;;;;;;;;;;4945406;28;20031;-67
2023/06/17 03:46:59;;;;;;;8.13;3.13;;;;;;;;;;4963300;28;20084;-67
2023/06/17 03:49:25;;;;;;;7.75;3.15;;;;;;;;;;4961943;28;20025;-67
2023/06/17 03:51:51;;;;;;;10.75;3.50;;;;;;;;;;4944329;28;20536;-69
2023/06/17 03:54:17;;;;;;;7.75;3.50;;;;;;;;;;4958908;28;20611;-68
2023/06/17 03:56:44;;;;;;;7.50;3.13;;;;;;;;;;4949003;28;20661;-67
2023/06/17 03:59:11;;;;;;;7.28;3.13;;;;;;;;;;4958809;28;20033;-67
2023/06/17 04:01:38;;;;;;;7.32;3.30;;;;;;;;;;4947340;28;20101;-67
2023/06/17 04:04:04;;;;;;;7.63;3.40;;;;;;;;;;4957745;28;20030;-67
2023/06/17 04:06:30;;;;;;;7.38;3.03;;;;;;;;;;4961246;28;20027;-69
2023/06/17 04:08:57;;;;;;;7.32;3.00;;;;;;;;;;4962579;28;20481;-67
2023/06/17 04:11:23;;;;;;;7.93;3.15;;;;;;;;;;4938845;28;20060;-67
2023/06/17 04:13:49;;;;;;;7.20;3.20;;;;;;;;;;4960659;28;20195;-67
2023/06/17 04:16:15;;;;;;;7.07;3.00;;;;;;;;;;4960091;28;20034;-68
2023/06/17 04:18:41;;;;;;;6.80;2.70;;;;;;;;;;4962385;28;20139;-68
2023/06/17 04:21:09;;;;;;;6.68;2.92;;;;;;;;;;4940799;28;20103;-67
2023/06/17 04:23:35;;;;;;;7.15;3.20;;;;;;;;;;4945371;28;20286;-67
2023/06/17 04:26:01;;;;;;;6.88;3.35;;;;;;;;;;4946998;28;20113;-67
2023/06/17 04:28:31;;;;;;;9.55;4.05;;;;;;;;;;4968308;28;20022;-68
2023/06/17 04:30:59;;;;;;;8.50;4.45;;;;;;;;;;4967967;28;20467;-68
2023/06/17 04:33:25;;;;;;;7.63;3.85;;;;;;;;;;4956531;28;20379;-68
2023/06/17 04:35:51;;;;;;;9.30;4.32;;;;;;;;;;4965748;28;20290;-67
2023/06/17 04:38:20;;;;;;;9.02;4.40;;;;;;;;;;4961237;28;20093;-68
2023/06/17 04:40:46;;;;;;;9.52;5.10;;;;;;;;;;4953362;28;20908;-67
2023/06/17 04:43:12;;;;;;;10.07;5.00;;;;;;;;;;4961025;28;20038;-69
2023/06/17 04:45:39;;;;;;;11.40;4.63;;;;;;;;;;4964143;28;20038;-68
2023/06/17 04:48:06;;;;;;;9.50;4.53;;;;;;;;;;4963553;28;20037;-68
2023/06/17 04:50:33;;;;;;;8.55;3.60;;;;;;;;;;4964791;28;20049;-68
2023/06/17 04:53:03;;;;;;;9.30;4.32;;;;;;;;;;4947911;28;20242;-67
2023/06/17 04:55:35;;;;;;;7.30;3.20;;;;;;;;;;4948415;28;20038;-68
2023/06/17 04:58:04;;;;;;;7.00;3.15;;;;;;;;;;4958607;28;20149;-67
2023/06/17 05:00:31;;;;;;;10.48;3.53;;;;;;;;;;4964225;28;20117;-67
2023/06/17 05:02:57;;;;;;;10.82;3.90;;;;;;;;;;4966230;28;20034;-69
2023/06/17 05:05:24;;;;;;;9.63;3.95;;;;;;;;;;4961427;28;20374;-68
2023/06/17 05:07:50;;;;;;;10.73;4.10;;;;;;;;;;4965186;28;20053;-68
2023/06/17 05:10:16;;;;;;;8.68;3.30;;;;;;;;;;4961376;28;20450;-68
2023/06/17 05:12:42;;;;;;;8.43;3.03;;;;;;;;;;4966134;28;20544;-68
2023/06/17 05:15:09;;;;;;;7.72;2.97;;;;;;;;;;4961154;28;20041;-68
2023/06/17 05:17:35;;;;;;;8.07;3.35;;;;;;;;;;4948658;28;20133;-68
2023/06/17 05:20:01;;;;;;;7.43;3.13;;;;;;;;;;4963713;28;20046;-68
2023/06/17 05:22:27;;;;;;;7.20;3.50;;;;;;;;;;4963457;28;20273;-68
2023/06/17 05:24:53;;;;;;;8.48;2.97;;;;;;;;;;4951527;28;20034;-68
2023/06/17 05:27:19;;;;;;;9.45;3.63;;;;;;;;;;4960740;28;20429;-68
2023/06/17 05:29:46;;;;;;;8.30;3.47;;;;;;;;;;4964651;28;20038;-68
2023/06/17 05:32:12;;;;;;;8.63;3.38;;;;;;;;;;4962209;28;20780;-68
2023/06/17 05:34:38;;;;;;;8.43;3.47;;;;;;;;;;4964897;28;20066;-68
2023/06/17 05:37:04;;;;;;;8.00;3.30;;;;;;;;;;4959633;28;20077;-68
2023/06/17 05:39:30;;;;;;;7.40;3.22;;;;;;;;;;4951148;28;20039;-68
2023/06/17 05:41:56;;;;;;;10.88;4.63;;;;;;;;;;4963405;28;20038;-68
2023/06/17 05:44:23;;;;;;;12.07;5.88;;;;;;;;;;4959060;28;20042;-68
2023/06/17 05:46:49;;;;;;;9.02;4.88;;;;;;;;;;4951732;28;20487;-67
2023/06/17 05:49:16;;;;;;;9.77;4.88;;;;;;;;;;4958805;28;20454;-69
2023/06/17 05:51:42;;;;;;;9.63;4.78;;;;;;;;;;4962676;28;20101;-69
2023/06/17 05:54:08;;;;;;;10.65;6.00;;;;;;;;;;4959481;28;20519;-68
2023/06/17 05:56:34;;;;;;;10.32;5.53;;;;;;;;;;4963589;28;20026;-68
2023/06/17 05:59:00;;;;;;;12.40;6.60;;;;;;;;;;4959441;28;20030;-68
2023/06/17 06:01:27;;;;;;;14.98;7.45;;;;;;;;;;4963986;28;20514;-68
2023/06/17 06:03:53;;;;;;;12.82;6.45;;;;;;;;;;4964140;28;20038;-68
2023/06/17 06:06:19;;;;;;;10.73;5.20;;;;;;;;;;4957381;28;22422;-68
2023/06/17 06:08:45;;;;;;;10.50;4.97;;;;;;;;;;4961693;28;20058;-68
2023/06/17 06:11:11;;;;;;;9.68;4.38;;;;;;;;;;4959066;28;20070;-68
2023/06/17 06:13:37;;;;;;;8.30;4.10;;;;;;;;;;4962875;28;20113;-68
2023/06/17 06:16:04;;;;;;;11.55;5.40;;;;;;;;;;4958274;28;20027;-68
2023/06/17 06:18:30;;;;;;;13.95;6.32;;;;;;;;;;4950367;28;20485;-68
2023/06/17 06:20:57;;;;;;;12.70;5.00;;;;;;;;;;4962079;28;20033;-68
2023/06/17 06:23:23;;;;;;;9.15;4.45;;;;;;;;;;4958836;28;20034;-68
2023/06/17 06:25:49;;;;;;;9.63;4.00;;;;;;;;;;4960715;28;20181;-68
2023/06/17 06:28:15;;;;;;;8.93;3.80;;;;;;;;;;4940624;28;20611;-68
2023/06/17 06:30:41;;;;;;;7.57;3.33;;;;;;;;;;4962151;28;21017;-68
2023/06/17 06:33:07;;;;;;;9.20;3.42;;;;;;;;;;4961827;28;20034;-69
2023/06/17 06:35:33;;;;;;;9.15;3.53;;;;;;;;;;4961332;28;20038;-68
2023/06/17 06:37:59;;;;;;;7.93;3.65;;;;;;;;;;4945666;28;20030;-67
2023/06/17 06:40:26;;;;;;;10.50;4.20;;;;;;;;;;4963415;28;20037;-68
2023/06/17 06:42:52;;;;;;;10.52;4.75;;;;;;;;;;4962591;28;20064;-69
2023/06/17 06:45:18;;;;;;;9.60;3.78;;;;;;;;;;4959919;28;20042;-70
2023/06/17 06:47:44;;;;;;;8.20;3.30;;;;;;;;;;4961613;28;20748;-68
2023/06/17 06:50:10;;;;;;;7.22;3.13;;;;;;;;;;4943713;28;20470;-68
2023/06/17 06:52:36;;;;;;;9.00;3.60;;;;;;;;;;4962965;28;20850;-68
2023/06/17 06:55:03;;;;;;;9.07;3.90;;;;;;;;;;4957710;28;20031;-68
2023/06/17 06:57:29;;;;;;;7.07;3.28;;;;;;;;;;4961497;28;20036;-68
2023/06/17 06:59:55;;;;;;;9.23;3.22;;;;;;;;;;4963120;28;20054;-68
2023/06/17 07:02:21;;;;;;;7.90;3.42;;;;;;;;;;4956681;28;20116;-68
2023/06/17 07:04:48;;;;;;;8.60;3.70;;;;;;;;;;4948120;28;20156;-68
2023/06/17 07:07:14;;;;;;;8.40;3.33;;;;;;;;;;4938697;28;20038;-68
2023/06/17 07:09:40;;;;;;;8.02;3.53;;;;;;;;;;4960156;28;20413;-70
2023/06/17 07:12:06;;;;;;;7.07;3.10;;;;;;;;;;4960700;28;20393;-68
2023/06/17 07:14:33;;;;;;;8.20;2.90;;;;;;;;;;4959444;28;20456;-68
2023/06/17 07:16:59;;;;;;;8.15;3.05;;;;;;;;;;4960497;28;20036;-68
2023/06/17 07:19:25;;;;;;;8.93;3.33;;;;;;;;;;4945914;28;20041;-68
2023/06/17 07:21:51;;;;;;;8.65;3.30;;;;;;;;;;4945430;28;20040;-68
2023/06/17 07:24:17;;;;;;;7.63;3.15;;;;;;;;;;4957350;28;20105;-68
2023/06/17 07:26:44;;;;;;;6.78;3.08;;;;;;;;;;4964049;28;20062;-68
2023/06/17 07:29:10;;;;;;;10.00;2.95;;;;;;;;;;4955577;28;20119;-68
2023/06/17 07:31:36;;;;;;;8.13;3.17;;;;;;;;;;4944434;28;20568;-68
2023/06/17 07:34:02;;;;;;;7.10;3.20;;;;;;;;;;4959303;28;20502;-68
2023/06/17 07:36:28;;;;;;;7.60;3.30;;;;;;;;;;4960857;28;20030;-68
2023/06/17 07:38:55;;;;;;;10.43;3.20;;;;;;;;;;4956146;28;20086;-68
2023/06/17 07:41:21;;;;;;;9.75;3.30;;;;;;;;;;4939791;28;20124;-69
2023/06/17 07:43:48;;;;;;;7.70;3.08;;;;;;;;;;4954415;28;20038;-68
2023/06/17 07:46:14;;;;;;;7.93;3.65;;;;;;;;;;4942232;28;20519;-69
2023/06/17 07:48:40;;;;;;;8.70;4.10;;;;;;;;;;4960554;28;20034;-69
2023/06/17 07:51:07;;;;;;;9.60;4.00;;;;;;;;;;4957371;28;20082;-69
2023/06/17 07:53:33;;;;;;;10.55;4.03;;;;;;;;;;4959878;28;20689;-69
2023/06/17 07:55:59;;;;;;;8.38;3.70;;;;;;;;;;4959105;28;20076;-70
2023/06/17 07:58:26;;;;;;;7.82;3.28;;;;;;;;;;4959328;28;20026;-71
2023/06/17 08:00:52;;;;;;;9.65;3.00;;;;;;;;;;4963185;28;20060;-70
2023/06/17 08:03:18;;;;;;;6.80;2.90;;;;;;;;;;4960662;28;20049;-70
2023/06/17 08:05:44;;;;;;;8.38;3.28;;;;;;;;;;4963776;28;20030;-69
2023/06/17 08:08:10;;;;;;;8.10;2.53;;;;;;;;;;4958237;28;20460;-70
2023/06/17 08:10:36;;;;;;;7.72;3.13;;;;;;;;;;4963880;28;20665;-69
2023/06/17 08:13:03;;;;;;;10.98;2.92;;;;;;;;;;4946619;28;20494;-68
2023/06/17 08:15:29;;;;;;;7.88;3.10;;;;;;;;;;4950638;28;20700;-70
2023/06/17 08:17:55;;;;;;;11.63;2.85;;;;;;;;;;4964574;28;20551;-68
2023/06/17 08:20:21;;;;;;;7.15;2.72;;;;;;;;;;4959204;28;20045;-70
2023/06/17 08:22:47;;;;;;;6.90;2.50;;;;;;;;;;4962483;28;20393;-74
2023/06/17 08:25:14;;;;;;;7.32;3.00;;;;;;;;;;4958881;28;20043;-74
2023/06/17 08:27:42;;;;;;;7.78;2.85;;;;;;;;;;4945376;28;20422;-74
2023/06/17 08:30:08;;;;;;;6.75;2.85;;;;;;;;;;4955922;28;20058;-74
2023/06/17 08:32:35;;;;;;;12.57;3.10;;;;;;;;;;4960079;28;20034;-72
2023/06/17 08:35:06;;;;;;;7.28;2.88;;;;;;;;;;4958161;28;20042;-74
2023/06/17 08:37:33;;;;;;;7.75;2.92;;;;;;;;;;4964363;28;20026;-72
2023/06/17 08:39:59;;;;;;;7.85;2.92;;;;;;;;;;4946259;28;20371;-72
2023/06/17 08:42:27;;;;;;;10.88;2.88;;;;;;;;;;4960278;28;20114;-71
2023/06/17 08:44:55;;;;;;;7.18;2.42;;;;;;;;;;4963003;28;20676;-72
2023/06/17 08:47:21;;;;;;;7.55;2.53;;;;;;;;;;4960264;28;20035;-74
2023/06/17 08:49:47;;;;;;;8.45;2.70;;;;;;;;;;4962471;28;20030;-74
2023/06/17 08:52:14;;;;;;;6.90;2.35;;;;;;;;;;4943219;28;20558;-73
2023/06/17 08:54:41;;;;;;;6.85;2.58;;;;;;;;;;4960572;28;20037;-73
2023/06/17 08:57:14;;;;;;;7.75;2.30;;;;;;;;;;4943661;28;20031;-73
2023/06/17 08:59:43;;;;;;;4.85;2.20;;;;;;;;;;4961629;28;20508;-73
2023/06/17 09:02:12;;;;;;;6.72;2.45;;;;;;;;;;4941673;28;20042;-73
2023/06/17 09:04:39;;;;;;;7.93;2.67;;;;;;;;;;4963156;28;20487;-72
2023/06/17 09:07:08;;;;;;;7.47;2.53;;;;;;;;;;4944702;28;20034;-71
2023/06/17 09:09:34;;;;;;;8.52;2.50;;;;;;;;;;4946371;28;20487;-73
2023/06/17 09:12:04;;;;;;;5.65;2.40;;;;;;;;;;4957598;28;20401;-73
2023/06/17 09:14:31;;;;;;;9.32;2.55;;;;;;;;;;4943592;28;20038;-72
2023/06/17 09:16:58;;;;;;;7.15;2.78;;;;;;;;;;4961109;28;20034;-73
2023/06/17 09:19:24;;;;;;;7.03;2.45;;;;;;;;;;4956857;28;20436;-72
2023/06/17 09:21:51;;;;;;;8.23;2.40;;;;;;;;;;4961079;28;20352;-74
2023/06/17 09:24:18;;;;;;;6.00;2.45;;;;;;;;;;4958010;28;20033;-74
2023/06/17 09:26:45;;;;;;;5.78;2.10;;;;;;;;;;4945474;28;20665;-73
2023/06/17 09:29:12;;;;;;;8.32;2.33;;;;;;;;;;4943425;28;20034;-73
2023/06/17 09:31:49;;;;;;;8.07;2.65;;;;;;;;;;4960745;28;20027;-73
2023/06/17 09:34:15;;;;;;;5.63;2.30;;;;;;;;;;4958835;28;20034;-73
2023/06/17 09:36:41;;;;;;;5.93;2.50;;;;;;;;;;4958939;28;20022;-73
2023/06/17 09:39:12;;;;;;;6.32;2.47;;;;;;;;;;4957140;28;20568;-73
2023/06/17 09:41:42;;;;;;;5.93;2.30;;;;;;;;;;4946645;28;20345;-73
2023/06/17 09:44:08;;;;;;;6.07;2.25;;;;;;;;;;4954890;28;20042;-74
2023/06/17 09:46:36;;;;;;;7.30;2.55;;;;;;;;;;4962152;28;20357;-73
2023/06/17 09:49:10;;;;;;;5.47;2.33;;;;;;;;;;4958454;28;20072;-73
2023/06/17 09:51:37;;;;;;;5.68;2.10;;;;;;;;;;4945322;28;20031;-73
2023/06/17 09:54:04;;;;;;;6.22;2.30;;;;;;;;;;4956114;28;20054;-73
2023/06/17 09:56:31;;;;;;;7.05;2.40;;;;;;;;;;4959841;28;20038;-73
2023/06/17 09:58:58;;;;;;;6.70;2.20;;;;;;;;;;4955631;28;20031;-73
2023/06/17 10:01:30;;;;;;;9.50;2.40;;;;;;;;;;4956006;28;20105;-73
2023/06/17 10:04:02;;;;;;;6.63;2.50;;;;;;;;;;4957907;28;20037;-73
2023/06/17 10:06:32;;;;;;;6.82;2.33;;;;;;;;;;4960638;28;20162;-73
2023/06/17 10:09:00;;;;;;;5.63;2.30;;;;;;;;;;4959595;28;20081;-73
2023/06/17 10:11:28;;;;;;;5.70;2.08;;;;;;;;;;4945749;28;20057;-73
2023/06/17 10:13:57;;;;;;;8.75;2.30;;;;;;;;;;4959571;28;20038;-73
2023/06/17 10:16:25;;;;;;;5.97;2.30;;;;;;;;;;4957860;28;20035;-72
2023/06/17 10:18:52;;;;;;;6.55;2.08;;;;;;;;;;4959601;28;20053;-72
2023/06/17 10:21:20;;;;;;;4.85;2.03;;;;;;;;;;4956982;28;20567;-72
2023/06/17 10:23:47;;;;;;;6.45;2.15;;;;;;;;;;4957862;28;20037;-72
2023/06/17 10:26:13;;;;;;;5.95;2.33;;;;;;;;;;4956742;28;20037;-73
2023/06/17 10:29:07;;;;;;;5.47;2.25;;;;;;;;;;4958814;28;20347;-73
2023/06/17 10:31:38;;;;;;;5.10;1.90;;;;;;;;;;4958643;28;20421;-73
2023/06/17 10:34:05;;;;;;;6.13;2.22;;;;;;;;;;4939060;28;20034;-72
2023/06/17 10:36:33;;;;;;;7.75;2.50;;;;;;;;;;4943805;28;20037;-73
2023/06/17 10:39:12;;;;;;;8.50;2.30;;;;;;;;;;4963322;28;20068;-72
2023/06/17 10:41:38;;;;;;;5.85;2.40;;;;;;;;;;4961606;28;20343;-72
2023/06/17 10:44:23;;;;;;;6.43;2.25;;;;;;;;;;4957943;28;20037;-73
2023/06/17 10:46:52;;;;;;;6.68;2.42;;;;;;;;;;4939409;28;20033;-72
2023/06/17 10:49:22;;;;;;;7.88;2.25;;;;;;;;;;4957006;28;20760;-72
2023/06/17 10:51:48;;;;;;;5.18;2.22;;;;;;;;;;4944362;28;20496;-72
2023/06/17 10:54:14;;;;;;;5.88;2.30;;;;;;;;;;4955023;28;20038;-72
2023/06/17 10:56:51;;;;;;;5.00;2.20;;;;;;;;;;4959874;28;20038;-72
2023/06/17 10:59:37;;;;;;;4.97;2.00;;;;;;;;;;4938539;28;20929;-72
2023/06/17 11:02:07;;;;;;;5.95;2.00;;;;;;;;;;4937009;28;20480;-72
2023/06/17 11:04:40;;;;;;;7.35;2.30;;;;;;;;;;4959247;28;20040;-72
2023/06/17 11:07:07;;;;;;;6.90;2.28;;;;;;;;;;4955276;28;20480;-72
2023/06/17 11:09:34;;;;;;;8.15;2.17;;;;;;;;;;4959704;28;20042;-72
2023/06/17 11:12:06;;;;;;;6.78;1.98;;;;;;;;;;4939284;28;20050;-72
2023/06/17 11:14:33;;;;;;;5.35;2.00;;;;;;;;;;4960368;28;20917;-72
2023/06/17 11:16:59;;;;;;;4.57;1.90;;;;;;;;;;4957654;28;20037;-72
2023/06/17 11:19:26;;;;;;;7.35;2.20;;;;;;;;;;4960237;28;20069;-72
2023/06/17 11:21:57;;;;;;;6.18;2.30;;;;;;;;;;4959760;28;20033;-71
2023/06/17 11:24:23;;;;;;;7.05;2.50;;;;;;;;;;4943662;28;20040;-73
2023/06/17 11:26:49;;;;;;;7.88;2.35;;;;;;;;;;4941234;28;20759;-71
2023/06/17 11:29:15;;;;;;;7.35;2.50;;;;;;;;;;4955838;28;20034;-73
2023/06/17 11:31:42;;;;;;;6.55;2.28;;;;;;;;;;4960645;28;20041;-73
2023/06/17 11:34:08;;;;;;;5.63;2.45;;;;;;;;;;4956431;28;20033;-73
2023/06/17 11:36:35;;;;;;;5.43;2.15;;;;;;;;;;4944916;28;20513;-72
2023/06/17 11:39:02;;;;;;;5.85;2.40;;;;;;;;;;4957334;28;20018;-73
2023/06/17 11:41:29;;;;;;;6.05;2.40;;;;;;;;;;4960125;28;20104;-73
2023/06/17 11:43:55;;;;;;;6.60;2.38;;;;;;;;;;4956346;28;20061;-73
2023/06/17 11:46:22;;;;;;;7.13;2.60;;;;;;;;;;4955340;28;20173;-73
2023/06/17 11:48:48;;;;;;;6.60;2.63;;;;;;;;;;4946376;28;20514;-73
2023/06/17 11:51:15;;;;;;;5.88;2.28;;;;;;;;;;4955714;28;20485;-73
2023/06/17 11:53:44;;;;;;;8.13;2.70;;;;;;;;;;4958687;28;20022;-72
2023/06/17 11:56:10;;;;;;;5.40;2.10;;;;;;;;;;4955564;28;20030;-73
2023/06/17 11:58:40;;;;;;;6.40;2.42;;;;;;;;;;4956490;28;20462;-73
2023/06/17 12:01:06;;;;;;;5.90;2.13;;;;;;;;;;4955357;28;20045;-74
2023/06/17 12:03:33;;;;;;;5.95;2.30;;;;;;;;;;4959567;28;20797;-72
2023/06/17 12:05:59;;;;;;;9.13;2.70;;;;;;;;;;4958928;28;20413;-72
2023/06/17 12:08:36;;;;;;;6.38;2.50;;;;;;;;;;4960693;28;20046;-72
2023/06/17 12:11:22;;;;;;;6.72;2.40;;;;;;;;;;4954745;28;20042;-71
2023/06/17 12:13:50;;;;;;;5.18;2.10;;;;;;;;;;4957516;28;20560;-71
2023/06/17 12:16:30;;;;;;;5.63;2.28;;;;;;;;;;4957534;28;20057;-72
2023/06/17 12:18:57;;;;;;;8.15;2.38;;;;;;;;;;4959757;28;20018;-72
2023/06/17 12:21:24;;;;;;;6.25;2.50;;;;;;;;;;4956524;28;20512;-71
2023/06/17 12:23:53;;;;;;;6.25;2.20;;;;;;;;;;4958545;28;20089;-71
2023/06/17 12:26:19;;;;;;;9.25;2.40;;;;;;;;;;4936548;28;20042;-73
2023/06/17 12:28:46;;;;;;;6.00;2.40;;;;;;;;;;4958765;28;20436;-73
2023/06/17 12:31:13;;;;;;;6.25;2.47;;;;;;;;;;4942059;28;20116;-73
2023/06/17 12:33:39;;;;;;;7.85;2.30;;;;;;;;;;4960503;28;20022;-73
2023/06/17 12:36:06;;;;;;;7.07;2.20;;;;;;;;;;4956346;28;20493;-73
2023/06/17 12:38:33;;;;;;;6.38;2.30;;;;;;;;;;4944564;28;20396;-73
2023/06/17 12:41:00;;;;;;;7.80;2.40;;;;;;;;;;4942629;28;20756;-73
2023/06/17 12:43:26;;;;;;;6.05;2.53;;;;;;;;;;4959854;28;20034;-72
2023/06/17 12:45:54;;;;;;;8.25;2.60;;;;;;;;;;4963206;28;20035;-72
2023/06/17 12:48:20;;;;;;;6.55;2.45;;;;;;;;;;4959165;28;22462;-72
2023/06/17 12:50:47;;;;;;;7.13;2.47;;;;;;;;;;4946091;28;20097;-72
2023/06/17 12:53:13;;;;;;;6.60;2.53;;;;;;;;;;4940052;28;20061;-72
2023/06/17 12:55:39;;;;;;;5.85;2.20;;;;;;;;;;4963665;28;20251;-72
2023/06/17 12:58:06;;;;;;;7.30;2.38;;;;;;;;;;4958441;28;20026;-71
2023/06/17 13:00:33;;;;;;;6.72;2.28;;;;;;;;;;4963377;28;20137;-72
2023/06/17 13:02:59;;;;;;;6.65;2.10;;;;;;;;;;4961141;28;20101;-72
2023/06/17 13:05:26;;;;;;;5.93;2.38;;;;;;;;;;4961924;28;20561;-72
2023/06/17 13:07:52;;;;;;;5.95;2.50;;;;;;;;;;4960681;28;20203;-72
2023/06/17 13:10:18;;;;;;;6.18;1.98;;;;;;;;;;4957334;28;20062;-72
2023/06/17 13:12:44;;;;;;;5.65;2.28;;;;;;;;;;4961847;28;21144;-72
2023/06/17 13:15:11;;;;;;;6.85;2.53;;;;;;;;;;4957983;28;20559;-73
2023/06/17 13:17:37;;;;;;;8.60;2.90;;;;;;;;;;4962518;28;20030;-72
2023/06/17 13:20:04;;;;;;;6.63;2.60;;;;;;;;;;4959590;28;20410;-72
2023/06/17 13:22:33;;;;;;;7.18;2.50;;;;;;;;;;4961359;28;20060;-72
2023/06/17 13:24:59;;;;;;;8.55;2.28;;;;;;;;;;4961981;28;20445;-72
2023/06/17 13:27:26;;;;;;;5.72;2.28;;;;;;;;;;4961098;28;20042;-71
2023/06/17 13:29:52;;;;;;;6.43;2.55;;;;;;;;;;4961930;28;20451;-72
2023/06/17 13:32:19;;;;;;;7.38;2.50;;;;;;;;;;4940884;28;20416;-71
2023/06/17 13:34:45;;;;;;;7.70;2.50;;;;;;;;;;4962132;28;20541;-72
2023/06/17 13:37:11;;;;;;;6.47;2.22;;;;;;;;;;4959041;28;20133;-72
2023/06/17 13:39:38;;;;;;;6.32;2.40;;;;;;;;;;4961800;28;20136;-71
2023/06/17 13:42:04;;;;;;;5.13;2.28;;;;;;;;;;4955522;28;20453;-72
2023/06/17 13:44:31;;;;;;;6.03;2.38;;;;;;;;;;4960213;28;20117;-71
2023/06/17 13:46:57;;;;;;;6.05;2.20;;;;;;;;;;4960465;28;20141;-72
2023/06/17 13:49:23;;;;;;;5.68;2.20;;;;;;;;;;4957377;28;20405;-72
2023/06/17 13:51:50;;;;;;;5.82;2.50;;;;;;;;;;4960475;28;20461;-71
2023/06/17 13:54:19;;;;;;;6.07;2.30;;;;;;;;;;4958198;28;20031;-72
2023/06/17 13:56:46;;;;;;;6.63;2.30;;;;;;;;;;4960989;28;20034;-71
2023/06/17 13:59:12;;;;;;;5.35;2.42;;;;;;;;;;4957073;28;20026;-73
2023/06/17 14:01:39;;;;;;;8.55;2.83;;;;;;;;;;4962351;28;20031;-73
2023/06/17 14:04:05;;;;;;;5.75;2.45;;;;;;;;;;4958039;28;20026;-74
2023/06/17 14:06:31;;;;;;;4.88;2.28;;;;;;;;;;4962173;28;20414;-71
2023/06/17 14:08:58;;;;;;;5.15;2.45;;;;;;;;;;4961171;28;20100;-73
2023/06/17 14:11:25;;;;;;;7.50;2.70;;;;;;;;;;4960731;28;20034;-71
2023/06/17 14:13:51;;;;;;;9.50;2.60;;;;;;;;;;4945794;28;20084;-73
2023/06/17 14:16:17;;;;;;;8.25;2.85;;;;;;;;;;4957699;28;20333;-71
2023/06/17 14:18:43;;;;;;;5.50;2.38;;;;;;;;;;4958587;28;20054;-71
2023/06/17 14:21:30;;;;;;;6.30;2.63;;;;;;;;;;4957512;28;20070;-71
2023/06/17 14:24:00;;;;;;;6.68;2.60;;;;;;;;;;4966977;28;20038;-71
2023/06/17 14:26:26;;;;;;;9.60;2.70;;;;;;;;;;4960827;28;20350;-70
2023/06/17 14:28:52;;;;;;;6.57;2.40;;;;;;;;;;4959603;28;20042;-71
2023/06/17 14:31:18;;;;;;;6.07;2.55;;;;;;;;;;4941542;28;20550;-72
2023/06/17 14:33:45;;;;;;;6.03;2.35;;;;;;;;;;4959229;28;20034;-71
2023/06/17 14:36:11;;;;;;;7.28;2.53;;;;;;;;;;4940686;28;20026;-72
2023/06/17 14:38:37;;;;;;;8.35;2.90;;;;;;;;;;4942648;28;20506;-72
2023/06/17 14:41:03;;;;;;;8.15;2.60;;;;;;;;;;4955305;28;20234;-72